createdAt,value
2022-08-03T00:02:18.657Z,2.23
2022-08-03T00:04:45.968Z,1.40
2022-08-03T00:07:13.136Z,1.63
2022-08-03T00:09:40.314Z,1.70
2022-08-03T00:12:07.731Z,1.70
2022-08-03T00:14:35.029Z,2.30
2022-08-03T00:17:02.321Z,2.03
2022-08-03T00:19:29.785Z,1.90
2022-08-03T00:21:57.030Z,1.90
2022-08-03T00:24:24.173Z,1.30
2022-08-03T00:26:52.356Z,2.00
2022-08-03T00:29:19.521Z,1.67
2022-08-03T00:31:52.749Z,2.00
2022-08-03T00:34:36.465Z,1.73
2022-08-03T00:37:14.936Z,1.93
2022-08-03T00:39:45.915Z,1.60
2022-08-03T00:42:14.060Z,1.70
2022-08-03T00:44:44.526Z,1.83
2022-08-03T00:47:12.722Z,2.20
2022-08-03T00:49:41.727Z,2.20
2022-08-03T00:52:11.405Z,1.40
2022-08-03T00:54:39.817Z,1.80
2022-08-03T00:57:08.014Z,1.73
2022-08-03T00:59:35.289Z,1.90
2022-08-03T01:02:02.737Z,1.70
2022-08-03T01:04:29.909Z,1.90
2022-08-03T01:07:03.004Z,1.80
2022-08-03T01:10:24.890Z,2.00
2022-08-03T01:14:03.517Z,2.40
2022-08-03T01:17:02.285Z,1.80
2022-08-03T01:19:45.493Z,1.87
2022-08-03T01:22:58.933Z,1.60
2022-08-03T01:26:02.733Z,1.73
2022-08-03T01:29:35.138Z,1.40
2022-08-03T01:32:58.669Z,2.60
2022-08-03T01:35:28.012Z,1.83
2022-08-03T01:38:02.782Z,2.67
2022-08-03T01:40:34.445Z,2.40
2022-08-03T01:43:08.088Z,1.50
2022-08-03T01:45:37.536Z,1.33
2022-08-03T01:48:07.241Z,1.50
2022-08-03T01:50:35.607Z,1.70
2022-08-03T01:53:03.721Z,2.00
2022-08-03T01:55:34.592Z,2.10
2022-08-03T01:58:06.773Z,1.80
2022-08-03T02:00:37.773Z,1.40
2022-08-03T02:03:07.964Z,1.87
2022-08-03T02:05:36.659Z,1.80
2022-08-03T02:08:07.187Z,1.70
2022-08-03T02:10:37.754Z,1.90
2022-08-03T02:13:08.597Z,1.20
2022-08-03T02:15:39.281Z,1.43
2022-08-03T02:18:10.304Z,2.00
2022-08-03T02:20:39.737Z,1.77
2022-08-03T02:23:07.426Z,2.00
2022-08-03T02:25:43.102Z,1.90
2022-08-03T02:28:17.380Z,2.07
2022-08-03T02:30:51.881Z,2.10
2022-08-03T02:33:31.728Z,2.00
2022-08-03T02:36:02.165Z,2.10
2022-08-03T02:38:36.090Z,2.00
2022-08-03T02:41:09.252Z,2.00
2022-08-03T02:44:05.902Z,1.80
2022-08-03T02:46:34.115Z,2.27
2022-08-03T02:49:40.830Z,2.20
2022-08-03T02:51:54.833Z,1.97
2022-08-03T02:54:26.533Z,1.87
2022-08-03T02:56:57.135Z,2.17
2022-08-03T02:59:25.733Z,1.73
2022-08-03T03:01:55.420Z,1.80
2022-08-03T03:04:24.986Z,1.63
2022-08-03T03:07:01.794Z,1.60
2022-08-03T03:09:40.207Z,2.20
2022-08-03T03:12:15.834Z,2.20
2022-08-03T03:14:43.388Z,2.10
2022-08-03T03:17:13.318Z,1.83
2022-08-03T03:19:41.789Z,2.03
2022-08-03T03:22:09.771Z,2.10
2022-08-03T03:24:38.076Z,1.87
2022-08-03T03:27:05.887Z,1.87
2022-08-03T03:29:39.306Z,1.33
2022-08-03T03:32:08.402Z,2.73
2022-08-03T03:34:37.621Z,2.00
2022-08-03T03:37:05.478Z,1.80
2022-08-03T03:39:32.786Z,2.07
2022-08-03T03:42:01.682Z,1.50
2022-08-03T03:44:31.287Z,1.90
2022-08-03T03:46:58.894Z,1.87
2022-08-03T03:49:27.006Z,1.97
2022-08-03T03:51:55.722Z,2.00
2022-08-03T03:54:25.543Z,2.10
2022-08-03T03:57:15.077Z,1.87
2022-08-03T03:59:43.846Z,2.20
2022-08-03T04:02:12.560Z,2.60
2022-08-03T04:04:59.442Z,2.30
2022-08-03T04:07:46.839Z,1.90
2022-08-03T04:10:41.443Z,2.50
2022-08-03T04:13:15.920Z,1.70
2022-08-03T04:15:44.382Z,1.70
2022-08-03T04:18:16.278Z,1.77
2022-08-03T04:20:48.880Z,1.50
2022-08-03T04:23:21.395Z,2.03
2022-08-03T04:25:51.757Z,1.73
2022-08-03T04:28:29.497Z,1.40
2022-08-03T04:31:04.427Z,2.13
2022-08-03T04:33:38.925Z,2.27
2022-08-03T04:36:09.753Z,1.83
2022-08-03T04:39:06.942Z,2.17
2022-08-03T04:42:07.443Z,1.87
2022-08-03T04:44:28.175Z,1.97
2022-08-03T04:46:57.855Z,1.53
2022-08-03T04:49:26.737Z,2.23
2022-08-03T04:51:54.143Z,1.67
2022-08-03T04:54:21.363Z,2.27
2022-08-03T04:56:48.632Z,1.90
2022-08-03T04:59:17.811Z,2.60
2022-08-03T05:01:45.576Z,2.37
2022-08-03T05:04:12.832Z,2.37
2022-08-03T05:06:48.239Z,1.93
2022-08-03T05:09:49.871Z,2.60
2022-08-03T05:12:10.721Z,2.00
2022-08-03T05:14:38.947Z,2.57
2022-08-03T05:17:06.719Z,1.97
2022-08-03T05:19:33.993Z,1.70
2022-08-03T05:22:01.477Z,2.20
2022-08-03T05:24:28.652Z,2.00
2022-08-03T05:26:55.783Z,2.63
2022-08-03T05:29:22.918Z,2.13
2022-08-03T05:31:50.193Z,2.77
2022-08-03T05:34:17.526Z,2.30
2022-08-03T05:36:44.644Z,2.57
2022-08-03T05:39:11.744Z,2.30
2022-08-03T05:41:39.029Z,2.97
2022-08-03T05:44:06.208Z,2.27
2022-08-03T05:46:33.327Z,3.30
2022-08-03T05:49:00.533Z,3.33
2022-08-03T05:51:28.970Z,3.93
2022-08-03T05:53:56.184Z,2.80
2022-08-03T05:56:27.901Z,4.30
2022-08-03T05:58:55.272Z,2.80
2022-08-03T06:01:22.692Z,2.43
2022-08-03T06:03:50.917Z,3.67
2022-08-03T06:07:04.176Z,2.60
2022-08-03T06:10:33.612Z,2.90
2022-08-03T06:12:18.897Z,3.43
2022-08-03T06:14:46.405Z,2.57
2022-08-03T06:17:13.609Z,3.17
2022-08-03T06:19:42.567Z,2.50
2022-08-03T06:22:09.716Z,1.97
2022-08-03T06:24:36.898Z,2.83
2022-08-03T06:27:04.971Z,2.37
2022-08-03T06:29:32.091Z,2.40
2022-08-03T06:31:59.195Z,2.70
2022-08-03T06:34:33.789Z,2.60
2022-08-03T06:37:02.628Z,2.33
2022-08-03T06:39:30.036Z,2.27
2022-08-03T06:42:03.222Z,2.27
2022-08-03T06:44:32.531Z,2.20
2022-08-03T06:46:59.852Z,2.50
2022-08-03T06:49:27.472Z,2.07
2022-08-03T06:52:03.427Z,2.43
2022-08-03T06:54:42.059Z,2.20
2022-08-03T06:57:11.661Z,2.47
2022-08-03T07:00:06.145Z,2.50
2022-08-03T07:02:28.209Z,2.33
2022-08-03T07:04:55.864Z,1.77
2022-08-03T07:07:22.983Z,2.37
2022-08-03T07:09:56.598Z,2.10
2022-08-03T07:12:29.043Z,2.50
2022-08-03T07:15:01.382Z,2.13
2022-08-03T07:17:33.202Z,1.80
2022-08-03T07:20:02.081Z,2.07
2022-08-03T07:22:29.547Z,2.43
2022-08-03T07:24:57.688Z,1.87
2022-08-03T07:27:27.026Z,2.10
2022-08-03T07:29:55.317Z,2.00
2022-08-03T07:32:22.889Z,2.40
2022-08-03T07:34:50.036Z,2.20
2022-08-03T07:37:17.326Z,2.50
2022-08-03T07:39:44.932Z,2.17
2022-08-03T07:42:12.091Z,2.67
2022-08-03T07:44:39.480Z,2.03
2022-08-03T07:47:06.866Z,1.60
2022-08-03T07:49:41.372Z,2.43
2022-08-03T07:52:28.349Z,2.13
2022-08-03T07:54:55.990Z,2.67
2022-08-03T07:57:23.182Z,2.03
2022-08-03T08:00:01.518Z,2.13
2022-08-03T08:02:39.633Z,1.90
2022-08-03T08:05:07.579Z,1.70
2022-08-03T08:07:34.857Z,2.30
2022-08-03T08:10:02.052Z,2.13
2022-08-03T08:12:29.212Z,2.23
2022-08-03T08:14:56.293Z,1.73
2022-08-03T08:17:23.413Z,1.83
2022-08-03T08:19:51.567Z,1.90
2022-08-03T08:22:28.072Z,1.57
2022-08-03T08:24:58.567Z,1.97
2022-08-03T08:27:26.545Z,2.00
2022-08-03T08:29:55.741Z,2.20
2022-08-03T08:32:24.729Z,2.17
2022-08-03T08:34:51.913Z,1.80
2022-08-03T08:37:19.183Z,1.83
2022-08-03T08:39:46.332Z,1.97
2022-08-03T08:42:13.607Z,1.60
2022-08-03T08:44:40.881Z,2.03
2022-08-03T08:47:09.824Z,1.70
2022-08-03T08:49:46.476Z,1.90
2022-08-03T08:52:32.110Z,1.60
2022-08-03T08:55:05.533Z,1.20
2022-08-03T08:57:43.473Z,1.60
2022-08-03T09:00:15.441Z,1.57
2022-08-03T09:02:45.127Z,1.40
2022-08-03T09:05:18.841Z,1.80
2022-08-03T09:07:47.731Z,1.40
2022-08-03T09:10:21.654Z,2.20
2022-08-03T09:12:52.432Z,1.60
2022-08-03T09:15:31.373Z,2.00
2022-08-03T09:18:01.558Z,1.60
2022-08-03T09:20:35.222Z,1.60
2022-08-03T09:23:44.778Z,1.57
2022-08-03T09:25:59.806Z,2.07
2022-08-03T09:28:58.848Z,2.47
2022-08-03T09:31:45.762Z,1.30
2022-08-03T09:34:16.969Z,1.90
2022-08-03T09:36:50.793Z,1.50
2022-08-03T09:39:40.665Z,2.03
2022-08-03T09:42:18.558Z,1.40
2022-08-03T09:44:51.497Z,2.10
2022-08-03T09:47:34.093Z,1.60
2022-08-03T09:50:05.898Z,1.83
2022-08-03T09:52:52.349Z,1.57
2022-08-03T09:56:32.714Z,1.77
2022-08-03T09:58:15.202Z,1.73
2022-08-03T10:01:01.879Z,1.80
2022-08-03T10:03:32.863Z,1.70
2022-08-03T10:06:15.257Z,1.20
2022-08-03T10:08:42.579Z,1.80
2022-08-03T10:11:09.884Z,2.37
2022-08-03T10:13:38.466Z,1.40
2022-08-03T10:16:24.150Z,1.53
2022-08-03T10:18:52.530Z,1.63
2022-08-03T10:21:21.427Z,1.50
2022-08-03T10:23:51.143Z,1.20
2022-08-03T10:26:25.307Z,1.27
2022-08-03T10:28:55.089Z,1.40
2022-08-03T10:31:24.276Z,1.20
2022-08-03T10:33:55.846Z,1.40
2022-08-03T10:36:27.477Z,1.60
2022-08-03T10:38:57.135Z,1.00
2022-08-03T10:41:32.705Z,1.30
2022-08-03T10:44:19.347Z,1.30
2022-08-03T10:46:50.425Z,1.40
2022-08-03T10:49:34.722Z,1.60
2022-08-03T10:52:13.430Z,1.30
2022-08-03T10:55:11.169Z,1.60
2022-08-03T10:57:58.567Z,1.20
2022-08-03T11:00:30.535Z,1.30
2022-08-03T11:03:14.124Z,1.20
2022-08-03T11:05:49.465Z,1.20
2022-08-03T11:08:24.320Z,1.00
2022-08-03T11:10:57.899Z,1.13
2022-08-03T11:13:28.480Z,1.40
2022-08-03T11:16:00.094Z,1.17
2022-08-03T11:18:30.712Z,1.20
2022-08-03T11:21:00.512Z,1.10
2022-08-03T11:24:02.550Z,1.00
2022-08-03T11:26:34.102Z,1.20
2022-08-03T11:29:33.774Z,1.13
2022-08-03T11:32:00.977Z,0.80
2022-08-03T11:34:28.367Z,2.90
2022-08-03T11:37:23.334Z,1.43
2022-08-03T11:39:54.718Z,1.23
2022-08-03T11:42:25.617Z,1.33
2022-08-03T11:44:55.980Z,1.13
2022-08-03T11:47:27.078Z,0.97
2022-08-03T11:49:59.266Z,0.97
2022-08-03T11:52:28.868Z,1.00
2022-08-03T11:54:57.283Z,1.30
2022-08-03T11:59:17.805Z,1.00
2022-08-03T12:00:27.154Z,0.90
2022-08-03T12:03:16.233Z,1.10
2022-08-03T12:05:48.391Z,0.93
2022-08-03T12:08:33.371Z,1.17
2022-08-03T12:11:05.822Z,0.90
2022-08-03T12:14:33.013Z,1.20
2022-08-03T12:16:29.829Z,0.90
2022-08-03T12:19:03.972Z,0.90
2022-08-03T12:21:31.384Z,1.00
2022-08-03T12:24:05.372Z,0.93
2022-08-03T12:26:58.975Z,1.43
2022-08-03T12:29:27.314Z,0.90
2022-08-03T12:31:56.066Z,1.10
2022-08-03T12:34:23.845Z,1.10
2022-08-03T12:36:56.662Z,0.87
2022-08-03T12:39:26.696Z,2.57
2022-08-03T12:41:56.368Z,0.87
2022-08-03T12:44:35.338Z,1.10
2022-08-03T12:47:04.621Z,1.20
2022-08-03T12:49:46.833Z,1.20
2022-08-03T12:52:16.218Z,0.87
2022-08-03T12:54:54.007Z,1.00
2022-08-03T12:57:21.599Z,1.10
2022-08-03T12:59:53.335Z,1.07
2022-08-03T13:02:23.569Z,0.90
2022-08-03T13:04:54.015Z,0.90
2022-08-03T13:07:22.579Z,0.63
2022-08-03T13:09:53.453Z,0.90
2022-08-03T13:12:29.964Z,1.00
2022-08-03T13:14:59.743Z,0.80
2022-08-03T13:17:28.090Z,1.00
2022-08-03T13:19:56.523Z,0.80
2022-08-03T13:22:30.840Z,1.00
2022-08-03T13:24:58.295Z,1.10
2022-08-03T13:28:04.478Z,0.87
2022-08-03T13:30:24.178Z,1.30
2022-08-03T13:32:58.880Z,1.07
2022-08-03T13:35:26.346Z,0.80
2022-08-03T13:37:53.601Z,0.70
2022-08-03T13:40:23.625Z,0.80
2022-08-03T13:42:57.228Z,0.90
2022-08-03T13:45:24.880Z,0.70
2022-08-03T13:47:52.111Z,0.80
2022-08-03T13:50:19.384Z,0.87
2022-08-03T13:52:47.553Z,0.70
2022-08-03T13:55:14.784Z,1.13
2022-08-03T13:58:04.433Z,0.83
2022-08-03T14:00:29.743Z,0.80
2022-08-03T14:03:13.660Z,0.77
2022-08-03T14:05:45.178Z,0.80
2022-08-03T14:08:13.057Z,0.80
2022-08-03T14:10:44.814Z,0.87
2022-08-03T14:13:17.544Z,0.80
2022-08-03T14:15:50.320Z,0.97
2022-08-03T14:18:29.274Z,1.17
2022-08-03T14:21:06.436Z,0.90
2022-08-03T14:23:38.168Z,0.80
2022-08-03T14:26:07.567Z,0.90
2022-08-03T14:28:36.405Z,1.00
2022-08-03T14:31:04.709Z,1.10
2022-08-03T14:33:36.111Z,0.90
2022-08-03T14:36:03.903Z,1.10
2022-08-03T14:40:58.197Z,1.10
2022-08-03T14:56:05.231Z,1.00
2022-08-03T15:02:02.271Z,0.77
2022-08-03T15:06:58.586Z,1.00
2022-08-03T15:12:27.667Z,1.27
2022-08-03T15:15:03.988Z,1.17
2022-08-03T15:17:35.341Z,0.97
2022-08-03T15:20:28.905Z,1.00
2022-08-03T15:26:32.314Z,1.17
2022-08-03T15:31:09.521Z,0.97
2022-08-03T15:36:23.926Z,1.33
2022-08-03T15:38:52.618Z,1.00
2022-08-03T15:41:19.901Z,0.87
2022-08-03T15:44:02.628Z,0.90
2022-08-03T15:46:33.178Z,1.10
2022-08-03T15:51:26.433Z,0.90
2022-08-03T15:53:53.629Z,1.10
2022-08-03T15:56:20.823Z,0.90
2022-08-03T15:59:03.550Z,1.10
2022-08-03T16:01:35.269Z,0.90
2022-08-03T16:04:02.598Z,1.20
2022-08-03T16:06:35.831Z,1.37
2022-08-03T16:09:23.591Z,1.23
2022-08-03T16:11:53.936Z,1.00
2022-08-03T16:14:32.020Z,0.90
2022-08-03T16:17:04.138Z,0.90
2022-08-03T16:19:31.428Z,1.10
2022-08-03T16:21:58.616Z,0.83
2022-08-03T16:24:27.749Z,1.00
2022-08-03T16:26:56.463Z,0.80
2022-08-03T16:29:24.179Z,1.03
2022-08-03T16:31:52.790Z,1.13
2022-08-03T16:34:21.131Z,1.07
2022-08-03T16:36:48.646Z,0.70
2022-08-03T16:39:16.051Z,0.97
2022-08-03T16:41:54.042Z,0.87
2022-08-03T16:46:58.978Z,0.90
2022-08-03T16:49:54.627Z,1.03
2022-08-03T17:07:07.119Z,1.00
2022-08-03T17:09:38.904Z,1.07
2022-08-03T17:12:07.663Z,1.20
2022-08-03T17:14:39.202Z,1.23
2022-08-03T17:17:16.779Z,1.07
2022-08-03T17:19:47.411Z,0.63
2022-08-03T17:22:20.701Z,1.10
2022-08-03T17:24:54.249Z,1.07
2022-08-03T17:28:49.099Z,1.00
2022-08-03T17:30:19.021Z,0.90
2022-08-03T17:32:56.783Z,1.00
2022-08-03T17:35:34.409Z,1.37
2022-08-03T17:38:05.736Z,1.27
2022-08-03T17:40:34.990Z,1.10
2022-08-03T17:44:13.053Z,1.33
2022-08-03T17:45:54.994Z,1.20
2022-08-03T17:51:50.009Z,1.43
2022-08-03T17:55:50.647Z,1.10
2022-08-03T17:58:01.509Z,1.00
2022-08-03T18:00:51.771Z,1.03
2022-08-03T18:03:58.106Z,0.90
2022-08-03T18:06:37.979Z,1.00
2022-08-03T18:10:04.538Z,1.13
2022-08-03T18:15:20.921Z,1.17
2022-08-03T18:18:01.984Z,1.00
2022-08-03T18:20:40.885Z,1.03
2022-08-03T18:32:00.300Z,0.97
2022-08-03T18:36:54.790Z,1.20
2022-08-03T18:39:23.292Z,1.03
2022-08-03T18:41:52.004Z,1.20
2022-08-03T18:50:41.243Z,1.47
2022-08-03T18:54:02.470Z,1.20
2022-08-03T18:56:14.343Z,1.10
2022-08-03T19:04:45.192Z,1.53
2022-08-03T19:07:35.964Z,1.30
2022-08-03T19:13:05.011Z,1.10
2022-08-03T19:15:51.227Z,1.50
2022-08-03T19:18:34.949Z,1.10
2022-08-03T19:21:12.847Z,1.10
2022-08-03T19:26:43.332Z,1.40
2022-08-03T19:29:18.654Z,1.13
2022-08-03T19:31:58.680Z,1.40
2022-08-03T19:34:29.932Z,1.27
2022-08-03T19:36:59.305Z,1.50
2022-08-03T19:39:27.180Z,1.30
2022-08-03T19:45:11.410Z,1.10
2022-08-03T19:48:09.865Z,1.23
2022-08-03T19:50:44.489Z,1.27
2022-08-03T19:53:13.416Z,1.53
2022-08-03T19:55:48.885Z,1.00
2022-08-03T19:58:24.529Z,1.47
2022-08-03T20:00:56.132Z,1.70
2022-08-03T20:03:27.716Z,1.23
2022-08-03T20:06:12.552Z,1.00
2022-08-03T20:08:44.578Z,1.33
2022-08-03T20:11:11.956Z,1.47
2022-08-03T20:13:39.432Z,1.20
2022-08-03T20:16:06.852Z,1.60
2022-08-03T20:18:39.436Z,1.40
2022-08-03T20:21:15.847Z,1.20
2022-08-03T20:24:01.931Z,1.40
2022-08-03T20:26:32.221Z,1.20
2022-08-03T20:29:10.595Z,1.20
2022-08-03T20:31:37.992Z,1.60
2022-08-03T20:34:07.171Z,1.60
2022-08-03T20:36:36.357Z,1.20
2022-08-03T20:39:07.530Z,1.60
2022-08-03T20:41:35.517Z,1.07
2022-08-03T20:44:04.575Z,1.30
2022-08-03T20:46:41.670Z,1.00
2022-08-03T20:49:23.006Z,1.27
2022-08-03T20:51:53.302Z,1.40
2022-08-03T20:54:29.555Z,1.57
2022-08-03T20:57:04.093Z,1.20
2022-08-03T20:59:50.675Z,1.47
2022-08-03T21:02:29.959Z,1.50
2022-08-03T21:05:08.315Z,1.93
2022-08-03T21:08:05.061Z,1.37
2022-08-03T21:10:39.004Z,1.63
2022-08-03T21:13:02.695Z,1.33
2022-08-03T21:13:03.990Z,0.93
2022-08-03T21:13:18.839Z,1.33
2022-08-03T21:16:06.064Z,1.53
2022-08-03T21:19:03.346Z,1.53
2022-08-03T21:21:32.996Z,1.40
2022-08-03T21:24:03.747Z,1.80
2022-08-03T21:26:38.265Z,1.70
2022-08-03T21:29:05.895Z,1.60
2022-08-03T21:31:33.331Z,1.53
2022-08-03T21:34:05.477Z,1.30
2022-08-03T21:36:36.159Z,1.60
2022-08-03T21:39:08.362Z,1.63
2022-08-03T21:41:38.950Z,1.27
2022-08-03T21:44:07.532Z,1.67
2022-08-03T21:46:39.132Z,2.33
2022-08-03T21:50:05.660Z,1.63
2022-08-03T21:52:00.581Z,1.77
2022-08-03T21:54:35.757Z,1.87
2022-08-03T21:57:12.747Z,1.90
2022-08-03T21:59:52.818Z,2.03
2022-08-03T22:02:26.494Z,1.83
2022-08-03T22:04:56.210Z,2.07
2022-08-03T22:07:27.069Z,1.93
2022-08-03T22:10:00.016Z,2.27
2022-08-03T22:12:30.941Z,1.83
2022-08-03T22:15:02.079Z,1.80
2022-08-03T22:17:54.593Z,1.37
2022-08-03T22:20:21.719Z,1.60
2022-08-03T22:22:55.861Z,1.90
2022-08-03T22:25:36.399Z,2.03
2022-08-03T22:28:09.742Z,2.47
2022-08-03T22:30:38.275Z,1.90
2022-08-03T22:33:11.139Z,1.60
2022-08-03T22:35:50.925Z,1.70
2022-08-03T22:38:19.291Z,1.80
2022-08-03T22:40:50.989Z,1.50
2022-08-03T22:43:25.750Z,1.87
2022-08-03T22:46:09.463Z,1.53
2022-08-03T22:48:41.281Z,2.23
2022-08-03T22:51:10.032Z,2.30
2022-08-03T22:53:39.368Z,1.70
2022-08-03T22:56:08.355Z,2.30
2022-08-03T22:58:35.521Z,2.03
2022-08-03T23:01:11.280Z,2.07
2022-08-03T23:03:58.744Z,2.30
2022-08-03T23:06:34.957Z,2.20
2022-08-03T23:09:11.784Z,1.80
2022-08-03T23:11:45.390Z,1.70
2022-08-03T23:14:16.473Z,2.27
2022-08-03T23:16:46.158Z,2.60
2022-08-03T23:19:17.191Z,2.30
2022-08-03T23:22:02.976Z,2.00
2022-08-03T23:24:35.979Z,1.63
2022-08-03T23:27:08.167Z,2.53
2022-08-03T23:29:42.312Z,1.70
2022-08-03T23:32:13.005Z,1.70
2022-08-03T23:35:00.629Z,1.93
2022-08-03T23:37:27.837Z,1.63
2022-08-03T23:39:57.244Z,2.03
2022-08-03T23:42:24.520Z,2.00
2022-08-03T23:45:06.019Z,2.37
2022-08-03T23:47:47.074Z,2.93
2022-08-03T23:50:15.897Z,1.90
2022-08-03T23:53:05.173Z,1.67
2022-08-03T23:56:18.109Z,2.70
2022-08-03T23:59:18.146Z,1.90
